Time,TemperatureF,DewpointF,PressureIn,WindDirection,WindDirectionDegrees,WindSpeedMPH,WindSpeedGustMPH,Humidity,HourlyPrecipIn,Conditions,Clouds,dailyrainin,SoftwareType,DateUTC
2013-07-05 00:10:00,73.1,57.0,29.84,North,-999,4.0,9.0,57,0.00,,,0.00,weatherlink.com 1.10,2013-07-05 05:10:00,
2013-07-05 00:25:00,73.1,57.0,29.83,North,-999,4.0,10.0,57,0.00,,,0.00,weatherlink.com 1.10,2013-07-05 05:25:00,
2013-07-05 00:40:00,73.0,56.0,29.83,North,-999,6.0,14.0,56,0.00,,,0.00,weatherlink.com 1.10,2013-07-05 05:40:00,
2013-07-05 00:55:00,72.9,57.0,29.84,North,-999,6.0,10.0,57,0.00,,,0.00,weatherlink.com 1.10,2013-07-05 05:55:00,
2013-07-05 01:10:00,72.7,56.0,29.83,North,-999,4.0,10.0,57,0.00,,,0.00,weatherlink.com 1.10,2013-07-05 06:10:00,
2013-07-05 01:25:00,72.5,56.0,29.83,North,-999,4.0,11.0,57,0.00,,,0.00,weatherlink.com 1.10,2013-07-05 06:25:00,
2013-07-05 01:40:00,72.4,56.0,29.84,North,-999,4.0,9.0,57,0.00,,,0.00,weatherlink.com 1.10,2013-07-05 06:40:00,
2013-07-05 01:55:00,72.0,56.0,29.84,North,-999,5.0,10.0,57,0.00,,,0.00,weatherlink.com 1.10,2013-07-05 06:55:00,
2013-07-05 02:10:00,71.5,56.0,29.84,North,-999,3.0,8.0,58,0.00,,,0.00,weatherlink.com 1.10,2013-07-05 07:10:00,
2013-07-05 02:25:00,71.1,56.0,29.84,North,-999,5.0,8.0,59,0.00,,,0.00,weatherlink.com 1.10,2013-07-05 07:25:00,
2013-07-05 02:40:00,70.5,56.0,29.84,North,-999,3.0,8.0,61,0.00,,,0.00,weatherlink.com 1.10,2013-07-05 07:40:00,
2013-07-05 02:55:00,70.1,56.0,29.84,North,-999,3.0,7.0,62,0.00,,,0.00,weatherlink.com 1.10,2013-07-05 07:55:00,
2013-07-05 03:10:00,70.0,56.0,29.84,North,-999,5.0,11.0,62,0.00,,,0.00,weatherlink.com 1.10,2013-07-05 08:10:00,
2013-07-05 03:25:00,69.8,57.0,29.84,North,-999,3.0,10.0,63,0.00,,,0.00,weatherlink.com 1.10,2013-07-05 08:25:00,
2013-07-05 03:40:00,69.6,56.0,29.84,North,-999,4.0,9.0,63,0.00,,,0.00,weatherlink.com 1.10,2013-07-05 08:40:00,
2013-07-05 03:55:00,69.4,57.0,29.84,North,-999,3.0,12.0,64,0.00,,,0.00,weatherlink.com 1.10,2013-07-05 08:55:00,
2013-07-05 04:56:00,68.8,57.0,29.84,North,-999,2.0,6.0,67,0.00,,,0.00,weatherlink.com 1.10,2013-07-05 09:56:00,
2013-07-05 05:11:00,68.4,57.0,29.83,North,-999,2.0,9.0,67,0.00,,,0.00,weatherlink.com 1.10,2013-07-05 10:11:00,
2013-07-05 05:26:00,68.1,58.0,29.83,North,-999,4.0,9.0,69,0.00,,,0.00,weatherlink.com 1.10,2013-07-05 10:26:00,
2013-07-05 05:41:00,67.7,58.0,29.83,North,-999,3.0,8.0,70,0.00,,,0.00,weatherlink.com 1.10,2013-07-05 10:41:00,
2013-07-05 05:56:00,67.8,58.0,29.83,North,-999,1.0,7.0,70,0.00,,,0.00,weatherlink.com 1.10,2013-07-05 10:56:00,
2013-07-05 06:11:00,67.9,58.0,29.83,North,-999,4.0,7.0,71,0.00,,,0.00,weatherlink.com 1.10,2013-07-05 11:11:00,
2013-07-05 06:26:00,68.0,58.0,29.83,North,-999,3.0,9.0,71,0.00,,,0.00,weatherlink.com 1.10,2013-07-05 11:26:00,
2013-07-05 06:41:00,68.3,58.0,29.82,North,-999,6.0,8.0,69,0.00,,,0.00,weatherlink.com 1.10,2013-07-05 11:41:00,
2013-07-05 06:57:00,69.2,59.0,29.82,North,-999,4.0,10.0,69,0.00,,,0.00,weatherlink.com 1.10,2013-07-05 11:57:00,
2013-07-05 07:12:00,70.0,58.0,29.81,North,-999,8.0,10.0,66,0.00,,,0.00,weatherlink.com 1.10,2013-07-05 12:12:00,
2013-07-05 07:27:00,70.3,58.0,29.81,North,-999,4.0,17.0,66,0.00,,,0.00,weatherlink.com 1.10,2013-07-05 12:27:00,
2013-07-05 07:43:00,70.6,59.0,29.82,North,-999,6.0,16.0,67,0.00,,,0.00,weatherlink.com 1.10,2013-07-05 12:43:00,
2013-07-05 07:57:00,70.8,59.0,29.82,North,-999,6.0,15.0,66,0.00,,,0.00,weatherlink.com 1.10,2013-07-05 12:57:00,
2013-07-05 08:27:00,71.1,59.0,29.81,North,-999,7.0,9.0,66,0.00,,,0.00,weatherlink.com 1.10,2013-07-05 13:27:00,
2013-07-05 08:43:00,71.2,59.0,29.81,North,-999,5.0,12.0,66,0.00,,,0.00,weatherlink.com 1.10,2013-07-05 13:43:00,
2013-07-05 08:58:00,72.7,61.0,29.81,North,-999,2.0,8.0,67,0.00,,,0.00,weatherlink.com 1.10,2013-07-05 13:58:00,
2013-07-05 09:14:00,72.5,60.0,29.81,North,-999,5.0,11.0,65,0.00,,,0.00,weatherlink.com 1.10,2013-07-05 14:14:00,
2013-07-05 09:29:00,74.2,61.0,29.81,North,-999,6.0,10.0,64,0.00,,,0.00,weatherlink.com 1.10,2013-07-05 14:29:00,
2013-07-05 09:43:00,73.7,61.0,29.81,North,-999,5.0,11.0,65,0.00,,,0.00,weatherlink.com 1.10,2013-07-05 14:43:00,
2013-07-05 09:58:00,73.8,61.0,29.81,North,-999,4.0,9.0,65,0.00,,,0.00,weatherlink.com 1.10,2013-07-05 14:58:00,
2013-07-05 10:29:00,73.7,60.0,29.81,North,-999,7.0,10.0,62,0.00,,,0.00,weatherlink.com 1.10,2013-07-05 15:29:00,
2013-07-05 10:44:00,73.5,60.0,29.81,North,-999,6.0,13.0,63,0.00,,,0.00,weatherlink.com 1.10,2013-07-05 15:44:00,
2013-07-05 11:00:00,75.6,61.0,29.81,North,-999,7.0,12.0,61,0.00,,,0.00,weatherlink.com 1.10,2013-07-05 16:00:00,
2013-07-05 11:15:00,75.1,62.0,29.80,North,-999,5.0,12.0,63,0.00,,,0.00,weatherlink.com 1.10,2013-07-05 16:15:00,
2013-07-05 11:29:00,76.5,62.0,29.80,North,-999,6.0,11.0,62,0.00,,,0.00,weatherlink.com 1.10,2013-07-05 16:29:00,
2013-07-05 11:44:00,77.2,62.0,29.79,North,-999,10.0,14.0,59,0.00,,,0.00,weatherlink.com 1.10,2013-07-05 16:44:00,
2013-07-05 12:00:00,76.4,61.0,29.79,North,-999,6.0,18.0,59,0.00,,,0.00,weatherlink.com 1.10,2013-07-05 17:00:00,
2013-07-05 12:16:00,77.5,64.0,29.80,North,-999,3.0,16.0,63,0.00,,,0.00,weatherlink.com 1.10,2013-07-05 17:16:00,
2013-07-05 12:30:00,78.7,64.0,29.80,North,-999,5.0,17.0,60,0.00,,,0.00,weatherlink.com 1.10,2013-07-05 17:30:00,
2013-07-05 12:46:00,77.4,61.0,29.79,North,-999,10.0,14.0,57,0.00,,,0.00,weatherlink.com 1.10,2013-07-05 17:46:00,
2013-07-05 13:01:00,78.6,62.0,29.79,North,-999,7.0,16.0,58,0.00,,,0.00,weatherlink.com 1.10,2013-07-05 18:01:00,
2013-07-05 13:17:00,79.8,63.0,29.78,North,-999,13.0,13.0,56,0.00,,,0.00,weatherlink.com 1.10,2013-07-05 18:17:00,
2013-07-05 13:31:00,80.2,63.0,29.78,North,-999,8.0,15.0,56,0.00,,,0.00,weatherlink.com 1.10,2013-07-05 18:31:00,
2013-07-05 13:46:00,80.9,64.0,29.78,North,-999,7.0,21.0,56,0.00,,,0.00,weatherlink.com 1.10,2013-07-05 18:46:00,
2013-07-05 14:01:00,80.8,62.0,29.77,North,-999,13.0,17.0,53,0.00,,,0.00,weatherlink.com 1.10,2013-07-05 19:01:00,
2013-07-05 14:17:00,81.4,63.0,29.77,North,-999,7.0,16.0,53,0.00,,,0.00,weatherlink.com 1.10,2013-07-05 19:17:00,
2013-07-05 14:32:00,81.9,65.0,29.77,North,-999,7.0,13.0,56,0.00,,,0.00,weatherlink.com 1.10,2013-07-05 19:32:00,
2013-07-05 14:48:00,83.4,64.0,29.77,North,-999,10.0,12.0,52,0.00,,,0.00,weatherlink.com 1.10,2013-07-05 19:48:00,
2013-07-05 15:03:00,83.1,64.0,29.77,North,-999,6.0,15.0,52,0.00,,,0.00,weatherlink.com 1.10,2013-07-05 20:03:00,
2013-07-05 15:18:00,83.3,63.0,29.77,North,-999,9.0,20.0,50,0.00,,,0.00,weatherlink.com 1.10,2013-07-05 20:18:00,
2013-07-05 15:33:00,83.7,65.0,29.76,North,-999,10.0,16.0,53,0.00,,,0.00,weatherlink.com 1.10,2013-07-05 20:33:00,
2013-07-05 15:48:00,84.0,64.0,29.76,North,-999,11.0,15.0,51,0.00,,,0.00,weatherlink.com 1.10,2013-07-05 20:48:00,
2013-07-05 16:03:00,84.5,63.0,29.75,North,-999,6.0,24.0,49,0.00,,,0.00,weatherlink.com 1.10,2013-07-05 21:03:00,
2013-07-05 16:18:00,84.7,63.0,29.75,North,-999,10.0,18.0,48,0.00,,,0.00,weatherlink.com 1.10,2013-07-05 21:18:00,
2013-07-05 16:34:00,84.9,62.0,29.75,North,-999,21.0,21.0,47,0.00,,,0.00,weatherlink.com 1.10,2013-07-05 21:34:00,
2013-07-05 16:49:00,85.2,64.0,29.75,North,-999,6.0,15.0,49,0.00,,,0.00,weatherlink.com 1.10,2013-07-05 21:49:00,
2013-07-05 17:05:00,85.3,63.0,29.75,North,-999,8.0,14.0,47,0.00,,,0.00,weatherlink.com 1.10,2013-07-05 22:05:00,
2013-07-05 17:19:00,85.2,64.0,29.75,North,-999,5.0,15.0,49,0.00,,,0.00,weatherlink.com 1.10,2013-07-05 22:19:00,
2013-07-05 17:35:00,85.2,64.0,29.74,North,-999,8.0,13.0,50,0.00,,,0.00,weatherlink.com 1.10,2013-07-05 22:35:00,
2013-07-05 17:50:00,85.2,64.0,29.74,North,-999,8.0,15.0,50,0.00,,,0.00,weatherlink.com 1.10,2013-07-05 22:50:00,
2013-07-05 18:05:00,85.1,64.0,29.74,North,-999,9.0,16.0,50,0.00,,,0.00,weatherlink.com 1.10,2013-07-05 23:05:00,
2013-07-05 18:20:00,85.4,61.0,29.74,North,-999,14.0,17.0,44,0.00,,,0.00,weatherlink.com 1.10,2013-07-05 23:20:00,
2013-07-05 18:34:00,85.5,61.0,29.74,North,-999,7.0,18.0,44,0.00,,,0.00,weatherlink.com 1.10,2013-07-05 23:34:00,
2013-07-05 18:50:00,85.2,62.0,29.74,North,-999,6.0,14.0,45,0.00,,,0.00,weatherlink.com 1.10,2013-07-05 23:50:00,
2013-07-05 19:05:00,84.4,63.0,29.74,North,-999,6.0,16.0,48,0.00,,,0.00,weatherlink.com 1.10,2013-07-06 00:05:00,
2013-07-05 19:21:00,84.2,62.0,29.74,North,-999,6.0,12.0,47,0.00,,,0.00,weatherlink.com 1.10,2013-07-06 00:21:00,
2013-07-05 19:36:00,84.2,61.0,29.74,North,-999,8.0,15.0,46,0.00,,,0.00,weatherlink.com 1.10,2013-07-06 00:36:00,
2013-07-05 19:51:00,83.7,61.0,29.75,North,-999,7.0,15.0,47,0.00,,,0.00,weatherlink.com 1.10,2013-07-06 00:51:00,
2013-07-05 20:06:00,82.9,61.0,29.75,North,-999,4.0,14.0,47,0.00,,,0.00,weatherlink.com 1.10,2013-07-06 01:06:00,
2013-07-05 20:21:00,82.3,61.0,29.75,North,-999,6.0,10.0,48,0.00,,,0.00,weatherlink.com 1.10,2013-07-06 01:21:00,
2013-07-05 20:37:00,81.3,61.0,29.75,North,-999,2.0,7.0,51,0.00,,,0.00,weatherlink.com 1.10,2013-07-06 01:37:00,
2013-07-05 20:52:00,80.6,62.0,29.75,North,-999,2.0,7.0,53,0.00,,,0.00,weatherlink.com 1.10,2013-07-06 01:52:00,
2013-07-05 21:06:00,79.9,63.0,29.75,North,-999,2.0,5.0,56,0.00,,,0.00,weatherlink.com 1.10,2013-07-06 02:06:00,
2013-07-05 21:21:00,79.4,63.0,29.75,North,-999,3.0,8.0,57,0.00,,,0.00,weatherlink.com 1.10,2013-07-06 02:21:00,
2013-07-05 21:37:00,78.9,64.0,29.76,North,-999,2.0,7.0,60,0.00,,,0.00,weatherlink.com 1.10,2013-07-06 02:37:00,
2013-07-05 21:52:00,78.6,63.0,29.76,North,-999,5.0,8.0,60,0.00,,,0.00,weatherlink.com 1.10,2013-07-06 02:52:00,
2013-07-05 22:07:00,78.6,64.0,29.77,North,-999,6.0,7.0,61,0.00,,,0.00,weatherlink.com 1.10,2013-07-06 03:07:00,
2013-07-05 22:22:00,78.2,64.0,29.78,North,-999,2.0,9.0,62,0.00,,,0.00,weatherlink.com 1.10,2013-07-06 03:22:00,
2013-07-05 22:37:00,77.5,63.0,29.78,North,-999,2.0,7.0,62,0.00,,,0.00,weatherlink.com 1.10,2013-07-06 03:37:00,
2013-07-05 22:52:00,76.8,63.0,29.78,North,-999,2.0,8.0,63,0.00,,,0.00,weatherlink.com 1.10,2013-07-06 03:52:00,
2013-07-05 23:07:00,76.2,63.0,29.78,North,-999,3.0,7.0,64,0.00,,,0.00,weatherlink.com 1.10,2013-07-06 04:07:00,
2013-07-05 23:23:00,75.7,64.0,29.78,North,-999,4.0,8.0,66,0.00,,,0.00,weatherlink.com 1.10,2013-07-06 04:23:00,
2013-07-05 23:38:00,75.0,63.0,29.79,North,-999,2.0,5.0,67,0.00,,,0.00,weatherlink.com 1.10,2013-07-06 04:38:00,
2013-07-05 23:54:00,74.3,63.0,29.79,North,-999,2.0,7.0,68,0.00,,,0.00,weatherlink.com 1.10,2013-07-06 04:54:00,